Web Počasí Slunečno.cz™ (Podmínky, ePrivacy) používá cookies a personalizace pro reklamní účely. Pohybem po stránce vyjadřujete souhlas. Odejít

Aktuální počasí v Česku a ve světě - METAR

Seznam meteostanic umístěných nejčasteji na letišti v ČR a ve světě

Vyhledat místa podle abecedy:
A B C D E F G H I J K L M N O P Q R S T U V W X Y Z

Filtrovat:

ID stanice:
a/nebo
Název místa (fulltext):
 
Místo (ID)Naposledy načteno 
Manzini (FDMS) 02.05.2021 12:00 UTC Zobrazit METAR
FDMS 021200Z 18011KT 9999 SCT040 24/11 Q1025 NOSIG
Maputo (FQMA) 22.01.2022 20:00 UTC Zobrazit METAR
FQMA 222000Z 24012KT 9999 BKN020 24/18 Q1023 NOSIG
Maribor (LJMB) 22.01.2022 20:00 UTC Zobrazit METAR
LJMB 222000Z 19005KT 9999 SCT043 BKN120 01/M02 Q1028
Marrakech (GMMX) 22.01.2022 20:00 UTC Zobrazit METAR
GMMX 222000Z 23003KT 170V290 8000 NSC 23/01 Q1019 NOSIG
Maseru (FXMM) 22.01.2022 12:00 UTC Zobrazit METAR
FXMM 221200Z 36006KT 9999 FEW035 26/03 Q1028 NOSIG
Mauritius (FIMP) 22.01.2022 20:00 UTC Zobrazit METAR
FIMP 222000Z 10009KT 9999 BKN017 27/25 Q1013
Melilla (GEML) 22.01.2022 20:00 UTC Zobrazit METAR
GEML 222000Z AUTO 09006KT 050V130 CAVOK 14/09 Q1025
Mexico City (MMMX) 22.01.2022 19:48 UTC Zobrazit METAR
MMMX 221948Z 15004KT 10SM SCT020 BKN100 21/01 A3028 NOSIG RMK 8/830 HZY
Midway Atoll, Sand Island (PMDY) 22.01.2022 19:56 UTC Zobrazit METAR
PMDY 221956Z AUTO 19019KT 7SM BKN085 BKN110 22/20 A2977 RMK AO2 PK WND 22029/1927 SLP080 T02220200
Milan (LIMC) 22.01.2022 19:50 UTC Zobrazit METAR
LIMC 221950Z VRB03KT CAVOK 03/M01 Q1025 NOSIG
Minsk (UMMM) 11.07.2016 14:00 UTC Zobrazit METAR
UMMM 111400Z ///// //// BKN040 BKN200 28/16 Q1009 NOSIG RMK QFE738
Mitilini (LGMT) 22.01.2022 19:50 UTC Zobrazit METAR
LGMT 221950Z 01009KT 9999 BKN020 03/M04 Q1016
Mogadishu (HCMM) 22.01.2022 14:00 UTC Zobrazit METAR
HCMM 221400Z 09020KT CAVOK 29/23 Q1009
Monrovia (GLRB) 22.01.2022 19:00 UTC Zobrazit METAR
GLRB 221900Z 00000KT 8000 VCHZ NSC 28/23 Q1009 NOSIG
Montevideo (SUMU) 22.01.2022 20:00 UTC Zobrazit METAR
SUMU 222000Z 13015KT 9999 FEW033 27/21 Q1006 NOSIG
Montpellier/ Mediterranee (LFMT) 22.01.2022 20:00 UTC Zobrazit METAR
LFMT 222000Z AUTO 02015KT CAVOK 06/M01 Q1029 BECMG 30005KT
Moscow (UUEE) Zatím nenačteno  
Mostar (LQMO) 22.01.2022 20:00 UTC Zobrazit METAR
LQMO 222000Z 02013KT 330V040 9999 FEW045 05/M13 Q1024
Mount Pleasant (EGYP) 22.01.2022 19:50 UTC Zobrazit METAR
EGYP 221950Z 28009KT 9999 FEW025 BKN210 20/08 Q0997
Munich (EDDM) 22.01.2022 19:50 UTC Zobrazit METAR
EDDM 221950Z 26012KT 7000 BKN005 01/00 Q1032 TEMPO 2500 -RADZ BKN004
Muscat (OOMS) 22.01.2022 19:50 UTC Zobrazit METAR
OOMS 221950Z 23005KT 200V260 8000 NSC 18/09 Q1018 NOSIG
N'Djamena (FTTJ) 22.01.2022 20:00 UTC Zobrazit METAR
FTTJ 222000Z 33005KT 8000 NSC 23/M03 Q1014 NOSIG
Nairobi (HKJK) 22.01.2022 20:00 UTC Zobrazit METAR
HKJK 222000Z 05008KT 9999 BKN020 19/14 Q1022 NOSIG
Nantes/ Atlantique (LFRS) 22.01.2022 20:00 UTC Zobrazit METAR
LFRS 222000Z AUTO 05012KT 9999 OVC015 05/02 Q1036 BECMG OVC012
Nassau (MYNN) 22.01.2022 16:00 UTC Zobrazit METAR
MYNN 221600Z 21005KT 180V260 9999 SCT015 SCT080 BKN220 26/22 A3011
Nauru (ANAU) Zatím nenačteno  
Nausori (NFNA) 22.01.2022 20:00 UTC Zobrazit METAR
NFNA 222000Z 09007KT 9999 BKN020 29/26 Q1007
New York (KNYC) 22.01.2022 19:51 UTC Zobrazit METAR
KNYC 221951Z AUTO VRB03KT 10SM CLR M02/M12 A3028 RMK AO2 SLP245 T10171117
Newcastle (EGNT) 22.01.2022 19:50 UTC Zobrazit METAR
EGNT 221950Z 27007KT CAVOK 05/05 Q1034
Niamey (DRRN) 22.01.2022 20:00 UTC Zobrazit METAR
DRRN 222000Z 03007KT 8000 NSC 24/M10 Q1016 NOSIG
Nice/ Cote D'Azur (LFMN) 22.01.2022 20:00 UTC Zobrazit METAR
LFMN 222000Z 33010KT CAVOK 08/03 Q1027 NOSIG
Niue Island (NIUE) 22.01.2022 20:00 UTC Zobrazit METAR
NIUE 222000Z 22009KT 9999 SCT018 28/24 Q1004 RESHRA
Nizhny Novgorod (UWGG) 13.10.2017 15:00 UTC Zobrazit METAR
UWGG 131500Z 9000 NSC 10/07 Q1006 R18R/290050 NOSIG RMK QFE747
North Caicos I. (MBNC) Zatím nenačteno  
Nouakchott (GQNN) 23.06.2016 11:00 UTC Zobrazit METAR
GQNN 231100Z 23009KT 180V250 7000 BKN010 25/18 Q1013 NOSIG
Noumea (NWWM) Zatím nenačteno  
Nuku'alofa (NFTF) 22.01.2022 20:00 UTC Zobrazit METAR
NFTF 222000Z 15012KT 9999 SCT016 28/24 Q1008
Odense (EKOD) 22.01.2022 17:50 UTC Zobrazit METAR
EKOD 221750Z 26008KT 9999 DZ SCT016 OVC026 05/05 Q1027
Odesa (UKOO) 01.02.2018 08:00 UTC Zobrazit METAR
UKOO 010800Z CAVOK 07/04 Q1018 R16/190056 NOSIG
Osijek (LDOS) 22.01.2022 20:00 UTC Zobrazit METAR
LDOS 222000Z 33011KT CAVOK M02/M06 Q1027
Oslo (ENGM) 22.01.2022 19:20 UTC Zobrazit METAR
ENGM 221920Z VRB01KT 9999 SCT004 BKN220 M05/M06 Q1022 NOSIG
Ostend (EBOS) 22.01.2022 19:50 UTC Zobrazit METAR
EBOS 221950Z 01005KT 9999 OVC018 05/03 Q1036 NOSIG
Ostrava (LKMT) 22.01.2022 20:00 UTC Zobrazit METAR
LKMT 222000Z 32005KT 9999 BKN037 M04/M08 Q1028 NOSIG
Ottawa (CYOW) 22.01.2022 20:00 UTC Zobrazit METAR
CYOW 222000Z 09011KT 15SM BKN170 OVC210 M18/M23 A3013 RMK AS7CS1 SLP219
Ouagadougou (DFFD) 22.01.2022 20:00 UTC Zobrazit METAR
DFFD 222000Z 02004KT CAVOK 24/M02 Q1015 NOSIG
Oulu (EFOU) 22.01.2022 19:50 UTC Zobrazit METAR
EFOU 221950Z AUTO 17007KT 9999 OVC032 M06/M10 Q1016
Pago Pago (NSTU) 22.01.2022 19:50 UTC Zobrazit METAR
NSTU 221950Z 25009KT 12SM FEW023 SCT120 OVC220 30/26 A2971 RMK SLP061 T02950260
Palanga (EYPA) 22.01.2022 19:50 UTC Zobrazit METAR
EYPA 221950Z VRB01KT 9999 FEW027 BKN120 M03/M05 Q1024
Palermo (LICJ) 22.01.2022 18:50 UTC Zobrazit METAR
LICJ 221850Z AUTO 07010KT 9999 SCT047/// 10/01 Q1027
Palma de Mallorca (LEPA) 22.01.2022 20:00 UTC Zobrazit METAR
LEPA 222000Z VRB02KT 9999 FEW030 SCT060 09/05 Q1029 NOSIG
Předchozí 1 ... 4 5 6 7 8 9 Další
Reklama

Reklama


Newslettter

Počasí na Váš email

Každý den Vám pošleme předpověď
Emaily chodí ráno a bez reklamy



Odhlásit newsletter

Reklama